sensor_id;sensor_type;location;lat;lon;timestamp;pressure;altitude;pressure_sealevel;temperature;humidity
34103;BME280;20381;54.498;18.206;2023-04-02T00:07:52;99216.56;;;1.24;99.78
34103;BME280;20381;54.498;18.206;2023-04-02T00:10:37;99222.05;;;1.28;100.00
34103;BME280;20381;54.498;18.206;2023-04-02T00:15:43;99224.56;;;1.31;99.68
34103;BME280;20381;54.498;18.206;2023-04-02T00:18:19;99225.07;;;1.26;99.53
34103;BME280;20381;54.498;18.206;2023-04-02T00:21:18;99223.84;;;1.23;99.77
34103;BME280;20381;54.498;18.206;2023-04-02T00:23:18;99226.91;;;1.21;99.79
34103;BME280;20381;54.498;18.206;2023-04-02T00:25:45;99238.87;;;1.22;99.80
34103;BME280;20381;54.498;18.206;2023-04-02T00:28:17;99233.22;;;1.27;99.98
34103;BME280;20381;54.498;18.206;2023-04-02T00:30:49;99238.70;;;1.31;99.98
34103;BME280;20381;54.498;18.206;2023-04-02T00:33:19;99241.28;;;1.31;99.83
34103;BME280;20381;54.498;18.206;2023-04-02T00:35:47;99249.83;;;1.33;99.73
34103;BME280;20381;54.498;18.206;2023-04-02T00:38:18;99245.91;;;1.36;99.81
34103;BME280;20381;54.498;18.206;2023-04-02T00:40:45;99241.16;;;1.37;99.69
34103;BME280;20381;54.498;18.206;2023-04-02T00:43:13;99248.48;;;1.36;99.23
34103;BME280;20381;54.498;18.206;2023-04-02T00:45:43;99252.34;;;1.36;98.98
34103;BME280;20381;54.498;18.206;2023-04-02T00:48:32;99247.20;;;1.36;99.15
34103;BME280;20381;54.498;18.206;2023-04-02T00:50:45;99255.69;;;1.41;99.46
34103;BME280;20381;54.498;18.206;2023-04-02T00:53:19;99251.39;;;1.42;99.52
34103;BME280;20381;54.498;18.206;2023-04-02T00:55:42;99261.61;;;1.46;99.45
34103;BME280;20381;54.498;18.206;2023-04-02T00:58:16;99266.70;;;1.48;99.36
34103;BME280;20381;54.498;18.206;2023-04-02T01:00:52;99263.23;;;1.50;99.43
34103;BME280;20381;54.498;18.206;2023-04-02T01:05:51;99275.70;;;1.49;99.32
34103;BME280;20381;54.498;18.206;2023-04-02T01:08:59;99271.38;;;1.51;99.43
34103;BME280;20381;54.498;18.206;2023-04-02T01:16:51;99269.61;;;1.53;99.07
34103;BME280;20381;54.498;18.206;2023-04-02T01:22:27;99279.45;;;1.55;99.13
34103;BME280;20381;54.498;18.206;2023-04-02T01:24:56;99277.70;;;1.58;98.86
34103;BME280;20381;54.498;18.206;2023-04-02T01:27:26;99280.67;;;1.59;99.13
34103;BME280;20381;54.498;18.206;2023-04-02T01:29:55;99281.91;;;1.62;99.16
34103;BME280;20381;54.498;18.206;2023-04-02T01:32:25;99280.16;;;1.64;99.00
34103;BME280;20381;54.498;18.206;2023-04-02T01:34:51;99284.48;;;1.62;98.70
34103;BME280;20381;54.498;18.206;2023-04-02T01:37:44;99288.77;;;1.63;98.59
34103;BME280;20381;54.498;18.206;2023-04-02T01:45:36;99295.42;;;1.73;98.76
34103;BME280;20381;54.498;18.206;2023-04-02T01:48:17;99302.67;;;1.76;98.57
34103;BME280;20381;54.498;18.206;2023-04-02T01:50:46;99301.28;;;1.81;99.16
34103;BME280;20381;54.498;18.206;2023-04-02T01:53:16;99310.81;;;1.76;98.50
34103;BME280;20381;54.498;18.206;2023-04-02T01:55:52;99317.67;;;1.77;97.94
34103;BME280;20381;54.498;18.206;2023-04-02T01:58:21;99306.49;;;1.78;97.77
34103;BME280;20381;54.498;18.206;2023-04-02T02:03:29;99317.67;;;1.77;97.83
34103;BME280;20381;54.498;18.206;2023-04-02T02:05:57;99320.19;;;1.80;97.65
34103;BME280;20381;54.498;18.206;2023-04-02T02:08:36;99321.42;;;1.83;97.34
34103;BME280;20381;54.498;18.206;2023-04-02T02:11:01;99329.55;;;1.84;97.53
34103;BME280;20381;54.498;18.206;2023-04-02T02:13:28;99333.77;;;1.88;97.84
34103;BME280;20381;54.498;18.206;2023-04-02T02:16:00;99340.22;;;1.88;96.96
34103;BME280;20381;54.498;18.206;2023-04-02T02:18:25;99335.47;;;1.89;97.18
34103;BME280;20381;54.498;18.206;2023-04-02T02:20:54;99330.71;;;1.90;96.91
34103;BME280;20381;54.498;18.206;2023-04-02T02:23:22;99338.50;;;1.87;96.65
34103;BME280;20381;54.498;18.206;2023-04-02T02:25:48;99341.45;;;1.90;96.97
34103;BME280;20381;54.498;18.206;2023-04-02T02:28:17;99352.58;;;1.92;96.82
34103;BME280;20381;54.498;18.206;2023-04-02T02:30:59;99356.00;;;1.92;96.82
34103;BME280;20381;54.498;18.206;2023-04-02T02:33:51;99351.64;;;1.96;97.48
34103;BME280;20381;54.498;18.206;2023-04-02T02:36:23;99361.66;;;1.87;97.19
34103;BME280;20381;54.498;18.206;2023-04-02T02:38:55;99367.26;;;1.87;96.89
34103;BME280;20381;54.498;18.206;2023-04-02T02:46:26;99369.77;;;1.91;96.99
34103;BME280;20381;54.498;18.206;2023-04-02T02:48:56;99374.02;;;1.92;96.39
34103;BME280;20381;54.498;18.206;2023-04-02T02:51:27;99362.81;;;1.96;96.28
34103;BME280;20381;54.498;18.206;2023-04-02T02:53:58;99345.19;;;1.97;95.18
34103;BME280;20381;54.498;18.206;2023-04-02T02:56:24;99363.73;;;1.92;94.82
34103;BME280;20381;54.498;18.206;2023-04-02T02:58:52;99364.67;;;1.88;95.04
34103;BME280;20381;54.498;18.206;2023-04-02T03:01:19;99384.37;;;1.89;95.12
34103;BME280;20381;54.498;18.206;2023-04-02T03:03:47;99385.16;;;1.93;95.15
34103;BME280;20381;54.498;18.206;2023-04-02T03:06:16;99391.94;;;1.98;95.33
34103;BME280;20381;54.498;18.206;2023-04-02T03:08:58;99394.50;;;2.00;95.32
34103;BME280;20381;54.498;18.206;2023-04-02T03:14:42;99386.33;;;2.00;95.13
34103;BME280;20381;54.498;18.206;2023-04-02T03:17:16;99404.35;;;2.00;95.19
34103;BME280;20381;54.498;18.206;2023-04-02T03:19:47;99401.78;;;2.00;94.53
34103;BME280;20381;54.498;18.206;2023-04-02T03:22:25;99411.67;;;1.99;94.64
34103;BME280;20381;54.498;18.206;2023-04-02T03:27:25;99417.17;;;2.04;94.41
34103;BME280;20381;54.498;18.206;2023-04-02T03:32:36;99418.06;;;2.03;93.94
34103;BME280;20381;54.498;18.206;2023-04-02T03:37:49;99430.11;;;2.00;93.96
34103;BME280;20381;54.498;18.206;2023-04-02T03:42:48;99435.71;;;1.98;94.10
34103;BME280;20381;54.498;18.206;2023-04-02T03:45:27;99422.76;;;2.05;94.62
34103;BME280;20381;54.498;18.206;2023-04-02T03:53:03;99442.36;;;2.12;94.48
34103;BME280;20381;54.498;18.206;2023-04-02T03:55:32;99452.72;;;2.09;93.68
34103;BME280;20381;54.498;18.206;2023-04-02T04:00:45;99456.92;;;2.13;93.76
34103;BME280;20381;54.498;18.206;2023-04-02T04:03:23;99468.06;;;2.15;93.76
34103;BME280;20381;54.498;18.206;2023-04-02T04:06:01;99467.15;;;2.19;93.88
34103;BME280;20381;54.498;18.206;2023-04-02T04:08:33;99466.26;;;2.20;93.79
34103;BME280;20381;54.498;18.206;2023-04-02T04:11:07;99457.70;;;2.18;93.46
34103;BME280;20381;54.498;18.206;2023-04-02T04:14:02;99476.63;;;2.15;93.69
34103;BME280;20381;54.498;18.206;2023-04-02T04:16:22;99488.66;;;2.15;93.67
34103;BME280;20381;54.498;18.206;2023-04-02T04:18:54;99492.18;;;2.11;93.26
34103;BME280;20381;54.498;18.206;2023-04-02T04:21:27;99495.56;;;2.13;93.61
34103;BME280;20381;54.498;18.206;2023-04-02T04:24:05;99494.70;;;2.14;93.46
34103;BME280;20381;54.498;18.206;2023-04-02T04:26:43;99495.56;;;2.13;93.64
34103;BME280;20381;54.498;18.206;2023-04-02T04:31:45;99512.68;;;2.17;93.71
34103;BME280;20381;54.498;18.206;2023-04-02T04:34:20;99505.45;;;2.13;93.59
34103;BME280;20381;54.498;18.206;2023-04-02T04:36:51;99517.94;;;2.11;92.96
34103;BME280;20381;54.498;18.206;2023-04-02T04:42:00;99531.62;;;2.13;93.38
34103;BME280;20381;54.498;18.206;2023-04-02T04:44:44;99533.74;;;2.15;92.95
34103;BME280;20381;54.498;18.206;2023-04-02T04:47:32;99542.35;;;2.14;93.12
34103;BME280;20381;54.498;18.206;2023-04-02T04:49:59;99533.74;;;2.15;92.88
34103;BME280;20381;54.498;18.206;2023-04-02T04:52:34;99546.17;;;2.17;93.31
34103;BME280;20381;54.498;18.206;2023-04-02T04:55:01;99549.52;;;2.22;93.25
34103;BME280;20381;54.498;18.206;2023-04-02T04:57:33;99552.05;;;2.23;93.23
34103;BME280;20381;54.498;18.206;2023-04-02T05:05:45;99555.46;;;2.27;92.85
34103;BME280;20381;54.498;18.206;2023-04-02T05:08:15;99563.74;;;2.19;92.40
34103;BME280;20381;54.498;18.206;2023-04-02T05:13:46;99584.35;;;2.19;92.77
34103;BME280;20381;54.498;18.206;2023-04-02T05:16:23;99586.53;;;2.16;92.43
34103;BME280;20381;54.498;18.206;2023-04-02T05:26:59;99600.16;;;2.24;92.78
34103;BME280;20381;54.498;18.206;2023-04-02T05:29:32;99600.95;;;2.28;92.96
34103;BME280;20381;54.498;18.206;2023-04-02T05:32:12;99610.31;;;2.32;92.60
34103;BME280;20381;54.498;18.206;2023-04-02T05:34:39;99600.91;;;2.30;92.53
34103;BME280;20381;54.498;18.206;2023-04-02T05:37:20;99611.70;;;2.28;92.00
34103;BME280;20381;54.498;18.206;2023-04-02T05:39:59;99602.64;;;2.29;93.16
34103;BME280;20381;54.498;18.206;2023-04-02T05:42:29;99611.60;;;2.32;93.02
34103;BME280;20381;54.498;18.206;2023-04-02T05:45:22;99616.86;;;2.26;91.78
34103;BME280;20381;54.498;18.206;2023-04-02T05:47:49;99624.09;;;2.30;92.66
34103;BME280;20381;54.498;18.206;2023-04-02T05:50:26;99624.47;;;2.35;92.61
34103;BME280;20381;54.498;18.206;2023-04-02T05:53:08;99626.46;;;2.43;92.55
34103;BME280;20381;54.498;18.206;2023-04-02T05:55:40;99638.04;;;2.46;92.61
34103;BME280;20381;54.498;18.206;2023-04-02T05:58:15;99644.33;;;2.56;92.77
34103;BME280;20381;54.498;18.206;2023-04-02T06:03:35;99644.22;;;2.62;92.90
34103;BME280;20381;54.498;18.206;2023-04-02T06:06:05;99638.45;;;2.73;92.96
34103;BME280;20381;54.498;18.206;2023-04-02T06:08:46;99654.81;;;2.72;93.18
34103;BME280;20381;54.498;18.206;2023-04-02T06:11:16;99644.50;;;2.72;92.50
34103;BME280;20381;54.498;18.206;2023-04-02T06:13:41;99655.31;;;2.67;91.37
34103;BME280;20381;54.498;18.206;2023-04-02T06:16:11;99657.39;;;2.72;92.09
34103;BME280;20381;54.498;18.206;2023-04-02T06:18:43;99678.31;;;2.79;92.28
34103;BME280;20381;54.498;18.206;2023-04-02T06:21:13;99673.48;;;2.86;91.82
34103;BME280;20381;54.498;18.206;2023-04-02T06:23:59;99668.77;;;2.84;92.10
34103;BME280;20381;54.498;18.206;2023-04-02T06:31:58;99682.34;;;2.96;92.25
34103;BME280;20381;54.498;18.206;2023-04-02T06:34:26;99691.47;;;3.15;92.69
34103;BME280;20381;54.498;18.206;2023-04-02T06:36:59;99668.56;;;3.22;91.93
34103;BME280;20381;54.498;18.206;2023-04-02T06:39:30;99693.99;;;3.18;90.60
34103;BME280;20381;54.498;18.206;2023-04-02T06:42:08;99694.83;;;3.20;91.44
34103;BME280;20381;54.498;18.206;2023-04-02T06:44:37;99695.54;;;3.28;91.55
34103;BME280;20381;54.498;18.206;2023-04-02T06:47:18;99712.91;;;3.43;91.68
34103;BME280;20381;54.498;18.206;2023-04-02T06:49:49;99706.07;;;3.64;91.23
34103;BME280;20381;54.498;18.206;2023-04-02T06:52:37;99710.52;;;3.78;90.80
34103;BME280;20381;54.498;18.206;2023-04-02T06:57:53;99724.51;;;4.10;90.75
34103;BME280;20381;54.498;18.206;2023-04-02T07:00:43;99712.21;;;4.21;88.69
34103;BME280;20381;54.498;18.206;2023-04-02T07:03:20;99716.77;;;4.30;90.29
34103;BME280;20381;54.498;18.206;2023-04-02T07:05:43;99712.61;;;4.22;89.67
34103;BME280;20381;54.498;18.206;2023-04-02T07:08:10;99730.84;;;4.75;90.71
34103;BME280;20381;54.498;18.206;2023-04-02T07:10:37;99733.14;;;5.39;89.41
34103;BME280;20381;54.498;18.206;2023-04-02T07:13:17;99734.59;;;5.98;89.84
34103;BME280;20381;54.498;18.206;2023-04-02T07:15:39;99750.91;;;6.46;87.62
34103;BME280;20381;54.498;18.206;2023-04-02T07:18:05;99748.52;;;6.68;87.38
34103;BME280;20381;54.498;18.206;2023-04-02T07:20:33;99746.53;;;6.48;84.17
34103;BME280;20381;54.498;18.206;2023-04-02T07:23:03;99753.61;;;6.14;86.85
34103;BME280;20381;54.498;18.206;2023-04-02T07:25:29;99753.50;;;6.46;86.97
34103;BME280;20381;54.498;18.206;2023-04-02T07:27:56;99772.26;;;7.11;89.37
34103;BME280;20381;54.498;18.206;2023-04-02T07:30:25;99759.70;;;7.12;83.47
34103;BME280;20381;54.498;18.206;2023-04-02T07:32:51;99768.84;;;6.82;84.03
34103;BME280;20381;54.498;18.206;2023-04-02T07:35:17;99771.64;;;6.76;81.18
34103;BME280;20381;54.498;18.206;2023-04-02T07:37:44;99783.27;;;6.63;84.73
34103;BME280;20381;54.498;18.206;2023-04-02T07:40:17;99794.52;;;6.48;84.25
34103;BME280;20381;54.498;18.206;2023-04-02T07:42:44;99790.17;;;6.49;83.74
34103;BME280;20381;54.498;18.206;2023-04-02T07:45:11;99796.18;;;6.36;86.12
34103;BME280;20381;54.498;18.206;2023-04-02T07:47:38;99796.18;;;6.36;86.12
34103;BME280;20381;54.498;18.206;2023-04-02T07:50:07;99800.92;;;7.08;86.31
34103;BME280;20381;54.498;18.206;2023-04-02T07:52:41;99793.22;;;8.08;84.97
34103;BME280;20381;54.498;18.206;2023-04-02T07:55:09;99792.64;;;8.00;82.20
34103;BME280;20381;54.498;18.206;2023-04-02T07:57:53;99800.18;;;8.19;81.37
34103;BME280;20381;54.498;18.206;2023-04-02T08:00:18;99805.79;;;9.01;76.97
34103;BME280;20381;54.498;18.206;2023-04-02T08:02:46;99807.12;;;8.44;74.00
34103;BME280;20381;54.498;18.206;2023-04-02T08:05:13;99828.72;;;7.59;76.84
34103;BME280;20381;54.498;18.206;2023-04-02T08:07:50;99816.75;;;7.13;79.32
34103;BME280;20381;54.498;18.206;2023-04-02T08:10:10;99829.45;;;6.94;79.46
34103;BME280;20381;54.498;18.206;2023-04-02T08:12:37;99837.31;;;6.48;79.46
34103;BME280;20381;54.498;18.206;2023-04-02T08:15:05;99837.76;;;6.92;81.07
34103;BME280;20381;54.498;18.206;2023-04-02T08:17:31;99824.09;;;7.67;81.41
34103;BME280;20381;54.498;18.206;2023-04-02T08:20:08;99837.79;;;8.93;79.96
34103;BME280;20381;54.498;18.206;2023-04-02T08:22:39;99848.73;;;10.08;80.13
34103;BME280;20381;54.498;18.206;2023-04-02T08:25:06;99854.82;;;10.39;73.30
34103;BME280;20381;54.498;18.206;2023-04-02T08:27:36;99854.82;;;10.39;73.30
34103;BME280;20381;54.498;18.206;2023-04-02T08:30:11;99848.63;;;10.32;75.63
34103;BME280;20381;54.498;18.206;2023-04-02T08:32:38;99875.16;;;9.90;69.95
34103;BME280;20381;54.498;18.206;2023-04-02T08:35:17;99858.27;;;9.46;70.50
34103;BME280;20381;54.498;18.206;2023-04-02T08:37:43;99856.58;;;9.01;66.48
34103;BME280;20381;54.498;18.206;2023-04-02T08:40:24;99843.97;;;9.77;66.56
34103;BME280;20381;54.498;18.206;2023-04-02T08:46:00;99865.55;;;10.81;64.20
34103;BME280;20381;54.498;18.206;2023-04-02T08:48:26;99876.78;;;11.11;66.45
34103;BME280;20381;54.498;18.206;2023-04-02T08:50:56;99874.80;;;11.16;64.99
34103;BME280;20381;54.498;18.206;2023-04-02T08:53:33;99870.84;;;10.98;65.79
34103;BME280;20381;54.498;18.206;2023-04-02T08:56:07;99876.29;;;12.36;66.13
34103;BME280;20381;54.498;18.206;2023-04-02T09:04:20;99898.38;;;15.07;62.65
34103;BME280;20381;54.498;18.206;2023-04-02T09:07:10;99892.84;;;15.80;64.76
34103;BME280;20381;54.498;18.206;2023-04-02T09:09:21;99891.75;;;15.89;56.93
34103;BME280;20381;54.498;18.206;2023-04-02T09:12:01;99901.00;;;14.28;50.28
34103;BME280;20381;54.498;18.206;2023-04-02T09:14:40;99899.84;;;14.10;55.68
34103;BME280;20381;54.498;18.206;2023-04-02T09:17:24;99925.48;;;15.36;55.36
34103;BME280;20381;54.498;18.206;2023-04-02T09:22:31;99907.77;;;16.83;53.06
34103;BME280;20381;54.498;18.206;2023-04-02T09:25:02;99907.45;;;16.62;52.54
34103;BME280;20381;54.498;18.206;2023-04-02T09:27:33;99925.92;;;15.15;42.66
34103;BME280;20381;54.498;18.206;2023-04-02T09:30:22;99935.28;;;13.80;46.20
34103;BME280;20381;54.498;18.206;2023-04-02T09:32:57;99968.14;;;12.91;48.27
34103;BME280;20381;54.498;18.206;2023-04-02T09:35:26;99969.55;;;11.11;45.50
34103;BME280;20381;54.498;18.206;2023-04-02T09:38:15;99949.23;;;9.86;46.24
34103;BME280;20381;54.498;18.206;2023-04-02T09:43:32;99988.27;;;8.21;50.08
34103;BME280;20381;54.498;18.206;2023-04-02T09:46:05;100001.53;;;9.26;47.87
34103;BME280;20381;54.498;18.206;2023-04-02T09:48:56;100002.56;;;9.67;48.54
34103;BME280;20381;54.498;18.206;2023-04-02T09:51:33;99998.00;;;10.59;50.94
34103;BME280;20381;54.498;18.206;2023-04-02T09:56:35;99986.09;;;13.32;47.86
34103;BME280;20381;54.498;18.206;2023-04-02T09:59:14;99945.14;;;14.14;42.86
34103;BME280;20381;54.498;18.206;2023-04-02T10:01:55;99989.48;;;13.34;43.73
34103;BME280;20381;54.498;18.206;2023-04-02T10:06:59;99986.94;;;14.26;41.97
34103;BME280;20381;54.498;18.206;2023-04-02T10:09:31;100016.89;;;14.75;47.56
34103;BME280;20381;54.498;18.206;2023-04-02T10:12:00;100022.20;;;15.18;45.93
34103;BME280;20381;54.498;18.206;2023-04-02T10:14:30;100010.35;;;15.11;42.19
34103;BME280;20381;54.498;18.206;2023-04-02T10:17:13;100034.11;;;15.02;45.05
34103;BME280;20381;54.498;18.206;2023-04-02T10:19:47;100041.23;;;14.48;43.98
34103;BME280;20381;54.498;18.206;2023-04-02T10:22:18;100042.28;;;13.91;45.14
34103;BME280;20381;54.498;18.206;2023-04-02T10:24:46;100035.61;;;14.08;45.54
34103;BME280;20381;54.498;18.206;2023-04-02T10:27:32;100026.32;;;16.19;46.99
34103;BME280;20381;54.498;18.206;2023-04-02T10:35:31;100044.37;;;17.60;45.61
34103;BME280;20381;54.498;18.206;2023-04-02T10:41:02;100067.81;;;15.67;42.06
34103;BME280;20381;54.498;18.206;2023-04-02T10:54:39;100066.69;;;15.64;39.85
34103;BME280;20381;54.498;18.206;2023-04-02T10:57:38;100075.13;;;16.25;43.98
34103;BME280;20381;54.498;18.206;2023-04-02T11:02:44;100061.58;;;18.56;39.96
34103;BME280;20381;54.498;18.206;2023-04-02T11:05:25;100079.42;;;18.66;39.36
34103;BME280;20381;54.498;18.206;2023-04-02T11:07:53;100060.86;;;18.25;33.79
34103;BME280;20381;54.498;18.206;2023-04-02T11:10:19;100082.97;;;17.81;37.80
34103;BME280;20381;54.498;18.206;2023-04-02T11:13:31;100065.42;;;18.52;41.02
34103;BME280;20381;54.498;18.206;2023-04-02T11:15:22;100093.63;;;19.22;39.77
34103;BME280;20381;54.498;18.206;2023-04-02T11:17:51;100096.25;;;20.07;40.05
34103;BME280;20381;54.498;18.206;2023-04-02T11:23:18;100109.84;;;20.84;39.30
34103;BME280;20381;54.498;18.206;2023-04-02T11:25:46;100108.78;;;20.05;36.55
34103;BME280;20381;54.498;18.206;2023-04-02T11:30:50;100112.78;;;19.94;34.96
34103;BME280;20381;54.498;18.206;2023-04-02T11:33:39;100133.96;;;19.49;34.83
34103;BME280;20381;54.498;18.206;2023-04-02T11:38:59;100127.83;;;19.42;36.38
34103;BME280;20381;54.498;18.206;2023-04-02T11:44:20;100127.14;;;20.40;37.94
34103;BME280;20381;54.498;18.206;2023-04-02T11:46:46;100141.22;;;21.47;40.07
34103;BME280;20381;54.498;18.206;2023-04-02T11:50:00;100127.09;;;21.62;35.01
34103;BME280;20381;54.498;18.206;2023-04-02T11:51:52;100148.40;;;20.23;37.81
34103;BME280;20381;54.498;18.206;2023-04-02T11:54:27;100152.37;;;20.23;34.03
34103;BME280;20381;54.498;18.206;2023-04-02T11:57:02;100162.89;;;19.74;35.64
34103;BME280;20381;54.498;18.206;2023-04-02T12:02:22;100171.45;;;17.81;34.65
34103;BME280;20381;54.498;18.206;2023-04-02T12:07:57;100192.69;;;15.84;35.74
34103;BME280;20381;54.498;18.206;2023-04-02T12:10:33;100191.37;;;14.18;35.84
34103;BME280;20381;54.498;18.206;2023-04-02T12:13:02;100193.16;;;13.07;36.13
34103;BME280;20381;54.498;18.206;2023-04-02T12:18:18;100199.92;;;12.49;36.34
34103;BME280;20381;54.498;18.206;2023-04-02T12:20:49;100217.66;;;11.96;35.67
34103;BME280;20381;54.498;18.206;2023-04-02T12:23:33;100229.58;;;11.82;37.80
34103;BME280;20381;54.498;18.206;2023-04-02T12:26:19;100241.68;;;11.85;36.68
34103;BME280;20381;54.498;18.206;2023-04-02T12:28:39;100233.23;;;11.17;38.12
34103;BME280;20381;54.498;18.206;2023-04-02T12:31:13;100236.80;;;11.57;37.36
34103;BME280;20381;54.498;18.206;2023-04-02T12:33:41;100246.98;;;11.42;37.88
34103;BME280;20381;54.498;18.206;2023-04-02T12:36:20;100244.72;;;10.92;37.55
34103;BME280;20381;54.498;18.206;2023-04-02T12:38:52;100244.09;;;10.64;38.01
34103;BME280;20381;54.498;18.206;2023-04-02T12:41:24;100258.19;;;9.89;38.25
34103;BME280;20381;54.498;18.206;2023-04-02T12:44:11;100267.20;;;9.29;39.42
34103;BME280;20381;54.498;18.206;2023-04-02T12:46:42;100263.94;;;8.95;39.38
34103;BME280;20381;54.498;18.206;2023-04-02T12:51:47;100277.19;;;7.33;41.25
34103;BME280;20381;54.498;18.206;2023-04-02T12:54:16;100277.19;;;7.33;41.25
34103;BME280;20381;54.498;18.206;2023-04-02T12:56:48;100273.80;;;7.31;41.51
34103;BME280;20381;54.498;18.206;2023-04-02T13:02:02;100274.63;;;6.98;40.69
34103;BME280;20381;54.498;18.206;2023-04-02T13:04:29;100278.45;;;6.42;41.78
34103;BME280;20381;54.498;18.206;2023-04-02T13:06:55;100297.51;;;5.96;41.12
34103;BME280;20381;54.498;18.206;2023-04-02T13:09:39;100318.02;;;5.35;41.32
34103;BME280;20381;54.498;18.206;2023-04-02T13:12:03;100306.03;;;5.01;42.78
34103;BME280;20381;54.498;18.206;2023-04-02T13:14:30;100298.41;;;4.93;42.67
34103;BME280;20381;54.498;18.206;2023-04-02T13:16:58;100286.75;;;4.93;43.31
34103;BME280;20381;54.498;18.206;2023-04-02T13:19:30;100309.31;;;4.83;43.60
34103;BME280;20381;54.498;18.206;2023-04-02T13:21:59;100306.11;;;4.64;45.04
34103;BME280;20381;54.498;18.206;2023-04-02T13:24:29;100304.59;;;4.51;43.80
34103;BME280;20381;54.498;18.206;2023-04-02T13:26:58;100321.63;;;4.31;44.35
34103;BME280;20381;54.498;18.206;2023-04-02T13:29:30;100314.99;;;4.10;46.39
34103;BME280;20381;54.498;18.206;2023-04-02T13:32:00;100316.25;;;4.13;46.20
34103;BME280;20381;54.498;18.206;2023-04-02T13:34:31;100310.47;;;4.28;45.61
34103;BME280;20381;54.498;18.206;2023-04-02T13:36:57;100321.53;;;4.39;45.71
34103;BME280;20381;54.498;18.206;2023-04-02T13:39:25;100333.61;;;4.38;44.88
34103;BME280;20381;54.498;18.206;2023-04-02T13:41:56;100337.33;;;4.17;45.28
34103;BME280;20381;54.498;18.206;2023-04-02T13:44:31;100325.70;;;4.16;45.60
34103;BME280;20381;54.498;18.206;2023-04-02T13:46:58;100344.38;;;4.00;46.18
34103;BME280;20381;54.498;18.206;2023-04-02T13:49:27;100331.49;;;3.97;46.70
34103;BME280;20381;54.498;18.206;2023-04-02T13:51:58;100341.02;;;3.92;46.79
34103;BME280;20381;54.498;18.206;2023-04-02T13:54:44;100350.56;;;3.84;46.55
34103;BME280;20381;54.498;18.206;2023-04-02T13:57:11;100341.93;;;3.86;47.27
34103;BME280;20381;54.498;18.206;2023-04-02T13:59:39;100340.57;;;3.94;47.42
34103;BME280;20381;54.498;18.206;2023-04-02T14:02:08;100357.30;;;4.00;46.97
34103;BME280;20381;54.498;18.206;2023-04-02T14:04:38;100363.79;;;3.97;47.09
34103;BME280;20381;54.498;18.206;2023-04-02T14:18:14;100379.33;;;3.45;47.59
34103;BME280;20381;54.498;18.206;2023-04-02T14:29:20;100388.31;;;3.53;48.38
34103;BME280;20381;54.498;18.206;2023-04-02T14:34:50;100390.89;;;3.53;49.04
34103;BME280;20381;54.498;18.206;2023-04-02T14:37:38;100402.07;;;3.52;48.79
34103;BME280;20381;54.498;18.206;2023-04-02T14:43:26;100398.22;;;3.49;49.08
34103;BME280;20381;54.498;18.206;2023-04-02T14:46:02;100405.55;;;3.46;48.92
34103;BME280;20381;54.498;18.206;2023-04-02T14:48:49;100402.09;;;3.49;50.10
34103;BME280;20381;54.498;18.206;2023-04-02T15:05:01;100429.20;;;3.49;49.94
34103;BME280;20381;54.498;18.206;2023-04-02T15:07:52;100431.77;;;3.52;50.59
34103;BME280;20381;54.498;18.206;2023-04-02T15:13:10;100438.70;;;3.44;50.87
34103;BME280;20381;54.498;18.206;2023-04-02T15:15:47;100439.66;;;3.33;52.32
34103;BME280;20381;54.498;18.206;2023-04-02T15:18:27;100437.06;;;3.33;50.70
34103;BME280;20381;54.498;18.206;2023-04-02T15:26:59;100456.93;;;3.16;51.87
34103;BME280;20381;54.498;18.206;2023-04-02T15:29:51;100444.10;;;3.04;51.78
34103;BME280;20381;54.498;18.206;2023-04-02T15:41:12;100451.08;;;2.77;52.84
34103;BME280;20381;54.498;18.206;2023-04-02T15:43:38;100466.58;;;2.76;53.39
34103;BME280;20381;54.498;18.206;2023-04-02T15:52:20;100468.31;;;2.66;53.89
34103;BME280;20381;54.498;18.206;2023-04-02T16:00:31;100492.38;;;2.68;53.68
34103;BME280;20381;54.498;18.206;2023-04-02T16:08:39;100499.30;;;2.58;54.24
34103;BME280;20381;54.498;18.206;2023-04-02T16:11:09;100496.73;;;2.51;54.00
34103;BME280;20381;54.498;18.206;2023-04-02T16:13:41;100514.77;;;2.54;54.13
34103;BME280;20381;54.498;18.206;2023-04-02T16:16:28;100521.63;;;2.59;54.23
34103;BME280;20381;54.498;18.206;2023-04-02T16:21:36;100513.05;;;2.40;56.56
34103;BME280;20381;54.498;18.206;2023-04-02T16:24:11;100521.66;;;2.32;56.24
34103;BME280;20381;54.498;18.206;2023-04-02T16:29:57;100528.09;;;2.24;55.30
34103;BME280;20381;54.498;18.206;2023-04-02T16:35:19;100531.98;;;2.09;55.90
34103;BME280;20381;54.498;18.206;2023-04-02T16:38:16;100533.69;;;2.13;55.08
34103;BME280;20381;54.498;18.206;2023-04-02T16:41:03;100533.27;;;2.03;56.67
34103;BME280;20381;54.498;18.206;2023-04-02T16:49:21;100537.97;;;1.92;57.71
34103;BME280;20381;54.498;18.206;2023-04-02T16:59:58;100559.39;;;1.70;58.19
34103;BME280;20381;54.498;18.206;2023-04-02T17:08:23;100580.83;;;1.61;58.41
34103;BME280;20381;54.498;18.206;2023-04-02T17:11:05;100575.66;;;1.56;56.82
34103;BME280;20381;54.498;18.206;2023-04-02T17:13:40;100568.78;;;1.49;57.37
34103;BME280;20381;54.498;18.206;2023-04-02T17:19:08;100576.44;;;1.37;56.60
34103;BME280;20381;54.498;18.206;2023-04-02T17:21:36;100585.87;;;1.33;57.00
34103;BME280;20381;54.498;18.206;2023-04-02T17:26:56;100598.73;;;1.29;57.66
34103;BME280;20381;54.498;18.206;2023-04-02T17:29:23;100592.70;;;1.25;57.10
34103;BME280;20381;54.498;18.206;2023-04-02T17:31:49;100611.13;;;1.22;57.24
34103;BME280;20381;54.498;18.206;2023-04-02T17:34:22;100611.53;;;1.20;57.92
34103;BME280;20381;54.498;18.206;2023-04-02T17:36:56;100612.80;;;1.17;57.52
34103;BME280;20381;54.498;18.206;2023-04-02T17:39:48;100616.66;;;1.14;57.51
34103;BME280;20381;54.498;18.206;2023-04-02T17:45:14;100616.63;;;1.07;58.04
34103;BME280;20381;54.498;18.206;2023-04-02T18:04:07;100634.50;;;0.87;58.23
34103;BME280;20381;54.498;18.206;2023-04-02T18:12:05;100641.30;;;0.81;58.61